Time;durP1;ratioP1;P1;durP2;ratioP2;P2;SDS_P1;SDS_P2;PMS_P1;PMS_P2;Temp;Humidity;BMP_temperature;BMP_pressure;BME280_temperature;BME280_humidity;BME280_pressure;Samples;Min_cycle;Max_cycle;Signal;HPM_P1;HPM_P2
2021/12/16 00:03:01;;;;;;;14.23;9.05;;;6.20;99.90;;;;;;4987442;28;20050;-74
2021/12/16 00:08:55;;;;;;;14.85;9.13;;;6.20;99.90;;;;;;4985934;28;20522;-74
2021/12/16 00:11:10;;;;;;;15.00;9.70;;;6.20;99.90;;;;;;4979847;28;20555;-74
2021/12/16 00:31:18;;;;;;;14.50;9.77;;;6.00;99.90;;;;;;4927620;29;20600;-74
2021/12/16 00:35:45;;;;;;;14.38;9.30;;;6.00;99.90;;;;;;4944207;28;20030;-74
2021/12/16 00:38:12;;;;;;;12.88;9.05;;;6.10;99.90;;;;;;4962370;28;20043;-74
2021/12/16 00:40:41;;;;;;;13.85;8.65;;;6.10;99.90;;;;;;4962433;28;20058;-73
2021/12/16 00:43:16;;;;;;;14.85;9.13;;;6.00;99.90;;;;;;4962926;28;20635;-74
2021/12/16 00:48:58;;;;;;;12.55;8.60;;;6.00;99.90;;;;;;4960803;28;20049;-74
2021/12/16 00:54:10;;;;;;;12.68;8.05;;;5.90;99.90;;;;;;4971112;28;20478;-73
2021/12/16 00:56:37;;;;;;;13.25;8.68;;;5.90;99.90;;;;;;4965789;28;20512;-73
2021/12/16 00:59:07;;;;;;;12.07;8.80;;;5.90;99.90;;;;;;4968309;28;20086;-73
2021/12/16 01:50:35;;;;;;;13.50;7.88;;;5.40;99.90;;;;;;5006824;28;20507;-73
2021/12/16 01:56:15;;;;;;;13.45;8.23;;;5.40;99.90;;;;;;5014594;28;20034;-73
2021/12/16 01:58:41;;;;;;;13.50;8.35;;;5.30;99.90;;;;;;5010494;28;20029;-73
2021/12/16 02:01:17;;;;;;;14.70;9.82;;;5.40;99.90;;;;;;5007106;28;20038;-73
2021/12/16 02:03:52;;;;;;;12.88;8.65;;;5.40;99.90;;;;;;5008175;28;20029;-73
2021/12/16 02:09:26;;;;;;;13.20;8.43;;;5.40;99.90;;;;;;5010138;28;20033;-73
2021/12/16 02:12:03;;;;;;;14.40;8.85;;;5.40;99.90;;;;;;5001474;28;20116;-73
2021/12/16 02:29:01;;;;;;;15.65;9.50;;;5.20;99.90;;;;;;5014061;28;20056;-73
2021/12/16 02:36:58;;;;;;;14.82;9.30;;;5.30;99.90;;;;;;5013033;28;20030;-73
2021/12/16 02:39:09;;;;;;;14.75;9.07;;;5.20;99.90;;;;;;5011084;28;20448;-73
2021/12/16 02:41:39;;;;;;;15.07;9.10;;;5.20;99.90;;;;;;5011590;28;20053;-73
2021/12/16 02:44:13;;;;;;;14.45;8.85;;;5.20;99.90;;;;;;5011337;28;20104;-73
2021/12/16 02:49:26;;;;;;;13.65;9.15;;;5.30;99.90;;;;;;5014604;28;20553;-74
2021/12/16 02:51:52;;;;;;;15.50;9.70;;;5.30;99.90;;;;;;5016871;28;20029;-73
2021/12/16 02:54:19;;;;;;;13.10;8.63;;;5.30;99.90;;;;;;5007303;28;20037;-73
2021/12/16 02:56:44;;;;;;;12.05;8.55;;;5.30;99.90;;;;;;5006456;28;20022;-74
2021/12/16 02:59:11;;;;;;;12.60;8.32;;;5.20;99.90;;;;;;5013303;28;20558;-73
2021/12/16 03:01:38;;;;;;;12.25;8.52;;;5.30;99.90;;;;;;5012893;28;20081;-73
2021/12/16 03:04:09;;;;;;;15.27;9.48;;;5.30;99.90;;;;;;5008620;28;20108;-74
2021/12/16 03:06:35;;;;;;;14.73;9.13;;;5.30;99.90;;;;;;5008404;28;20406;-73
2021/12/16 03:09:07;;;;;;;14.32;9.13;;;5.30;99.90;;;;;;5005466;28;20025;-73
2021/12/16 03:16:41;;;;;;;15.13;8.45;;;5.20;99.90;;;;;;5008595;28;20049;-74
2021/12/16 03:19:16;;;;;;;14.55;8.90;;;5.20;99.90;;;;;;5013741;28;20100;-73
2021/12/16 03:21:47;;;;;;;13.77;8.82;;;5.30;99.90;;;;;;5013223;28;20041;-73
2021/12/16 03:24:44;;;;;;;13.73;9.27;;;5.30;99.90;;;;;;5010939;28;20057;-73
2021/12/16 03:30:16;;;;;;;15.77;9.38;;;5.20;99.90;;;;;;5001040;28;20018;-73
2021/12/16 03:37:51;;;;;;;13.05;8.27;;;5.20;99.90;;;;;;5010411;28;20026;-74
2021/12/16 03:40:18;;;;;;;13.77;8.27;;;5.30;99.90;;;;;;5006746;28;20566;-73
2021/12/16 03:42:59;;;;;;;13.38;8.73;;;5.30;99.90;;;;;;5008472;28;20041;-73
2021/12/16 03:48:38;;;;;;;12.07;7.72;;;5.40;99.90;;;;;;5011913;28;20088;-73
2021/12/16 03:51:10;;;;;;;12.85;8.35;;;5.30;99.90;;;;;;4967581;28;20113;-73
2021/12/16 03:53:37;;;;;;;11.90;8.25;;;5.20;99.90;;;;;;4971161;28;20039;-73
2021/12/16 03:56:05;;;;;;;11.93;7.70;;;5.30;99.90;;;;;;4972216;28;20515;-73
2021/12/16 03:58:31;;;;;;;13.65;8.82;;;5.20;99.90;;;;;;4968870;28;20023;-73
2021/12/16 04:01:00;;;;;;;12.88;8.18;;;5.20;99.90;;;;;;4966479;28;20486;-73
2021/12/16 04:03:27;;;;;;;13.43;8.93;;;5.20;99.90;;;;;;4965510;28;20474;-73
2021/12/16 04:05:53;;;;;;;13.32;8.45;;;5.10;99.90;;;;;;4963419;28;20067;-73
2021/12/16 04:08:19;;;;;;;11.88;7.90;;;5.10;99.90;;;;;;4970514;28;20449;-73
2021/12/16 04:11:01;;;;;;;13.30;8.13;;;5.10;99.90;;;;;;4970323;28;20030;-73
2021/12/16 04:13:27;;;;;;;13.18;8.32;;;5.10;99.90;;;;;;4967656;28;20082;-73
2021/12/16 04:15:53;;;;;;;12.63;7.55;;;5.10;99.90;;;;;;4966081;28;20420;-74
2021/12/16 04:18:19;;;;;;;15.23;8.10;;;5.10;99.90;;;;;;4962977;28;20921;-73
2021/12/16 04:20:46;;;;;;;12.18;7.65;;;5.10;99.90;;;;;;4963744;28;20031;-73
2021/12/16 04:23:13;;;;;;;12.25;7.78;;;5.10;99.90;;;;;;4969211;28;20094;-73
2021/12/16 04:25:42;;;;;;;14.30;8.80;;;5.10;99.90;;;;;;4971666;28;20027;-73
2021/12/16 04:28:14;;;;;;;15.82;9.30;;;5.10;99.90;;;;;;4994350;28;20042;-73
2021/12/16 04:30:41;;;;;;;11.55;8.07;;;5.10;99.90;;;;;;5006116;28;20036;-73
2021/12/16 04:33:07;;;;;;;14.85;8.60;;;5.10;99.90;;;;;;5003941;28;20026;-72
2021/12/16 04:35:34;;;;;;;14.63;9.75;;;5.00;99.90;;;;;;5009385;28;20022;-73
2021/12/16 04:38:00;;;;;;;13.77;9.63;;;5.00;99.90;;;;;;5012153;28;20022;-73
2021/12/16 04:40:29;;;;;;;13.57;8.63;;;5.00;99.90;;;;;;5008287;28;20079;-73
2021/12/16 04:43:00;;;;;;;13.27;9.15;;;5.00;99.90;;;;;;5007186;28;20037;-73
2021/12/16 04:45:27;;;;;;;13.70;9.30;;;5.00;99.90;;;;;;5006388;28;20474;-73
2021/12/16 04:47:53;;;;;;;14.52;9.07;;;5.00;99.90;;;;;;5004116;28;20033;-73
2021/12/16 04:50:19;;;;;;;13.65;8.90;;;5.00;99.90;;;;;;5010749;28;20034;-73
2021/12/16 04:52:45;;;;;;;12.40;8.18;;;5.00;99.90;;;;;;5009202;28;20022;-74
2021/12/16 04:55:13;;;;;;;14.35;8.88;;;5.00;99.90;;;;;;5006585;28;20025;-73
2021/12/16 04:57:40;;;;;;;13.00;8.75;;;5.00;99.90;;;;;;5006985;28;20103;-73
2021/12/16 05:00:12;;;;;;;16.80;8.57;;;5.00;99.90;;;;;;5010346;28;20494;-74
2021/12/16 05:02:39;;;;;;;13.43;9.38;;;5.00;99.90;;;;;;5006780;28;20044;-73
2021/12/16 05:05:05;;;;;;;13.65;8.75;;;5.00;99.90;;;;;;5010956;28;20022;-73
2021/12/16 05:07:31;;;;;;;14.13;8.85;;;5.00;99.90;;;;;;5007474;28;20490;-73
2021/12/16 05:12:28;;;;;;;15.63;9.98;;;5.00;99.90;;;;;;5006336;28;20091;-73
2021/12/16 05:14:54;;;;;;;13.20;9.10;;;5.00;99.90;;;;;;5003598;28;20014;-73
2021/12/16 05:17:28;;;;;;;15.85;9.13;;;5.00;99.90;;;;;;5010603;28;20060;-73
2021/12/16 05:19:55;;;;;;;14.32;9.23;;;5.00;99.90;;;;;;5010422;28;20561;-73
2021/12/16 05:25:12;;;;;;;15.40;9.40;;;5.00;99.90;;;;;;5012106;28;20024;-73
2021/12/16 05:27:37;;;;;;;18.35;9.88;;;5.00;99.90;;;;;;5007084;28;20102;-73
2021/12/16 05:30:04;;;;;;;15.93;9.43;;;5.00;99.90;;;;;;5002964;28;20483;-74
2021/12/16 05:32:30;;;;;;;15.30;9.40;;;4.90;99.90;;;;;;5010036;28;20030;-73
2021/12/16 05:34:56;;;;;;;15.85;9.77;;;4.80;99.90;;;;;;5010554;28;20037;-73
2021/12/16 05:37:24;;;;;;;16.48;10.02;;;4.80;99.90;;;;;;5007401;28;20034;-73
2021/12/16 05:39:50;;;;;;;17.10;9.77;;;4.80;99.90;;;;;;5010992;28;20034;-73
2021/12/16 05:42:16;;;;;;;16.80;9.88;;;4.80;99.90;;;;;;5008832;28;20454;-73
2021/12/16 05:44:42;;;;;;;14.13;9.23;;;4.70;99.90;;;;;;5015109;28;20113;-73
2021/12/16 05:47:11;;;;;;;20.77;10.80;;;4.60;99.90;;;;;;5018486;28;20065;-74
2021/12/16 05:49:37;;;;;;;16.00;9.80;;;4.60;99.90;;;;;;5017593;28;20395;-74
2021/12/16 05:52:03;;;;;;;15.63;9.85;;;4.70;99.90;;;;;;5017426;28;20013;-75
2021/12/16 05:54:28;;;;;;;17.17;9.98;;;4.60;99.90;;;;;;5018175;28;20375;-72
2021/12/16 05:56:55;;;;;;;16.48;10.07;;;4.60;99.90;;;;;;5011344;28;20033;-72
2021/12/16 05:59:22;;;;;;;15.30;10.82;;;4.60;99.90;;;;;;5009306;28;20061;-73
2021/12/16 06:01:49;;;;;;;19.73;10.93;;;4.60;99.90;;;;;;5011958;28;20475;-73
2021/12/16 06:04:15;;;;;;;19.05;12.07;;;4.60;99.90;;;;;;5014585;28;20072;-73
2021/12/16 06:06:41;;;;;;;18.05;10.43;;;4.60;99.90;;;;;;5011269;28;20040;-73
2021/12/16 06:09:08;;;;;;;20.55;12.85;;;4.60;99.90;;;;;;5006304;28;20022;-73
2021/12/16 06:11:35;;;;;;;20.48;13.52;;;4.50;99.90;;;;;;5008991;28;20058;-73
2021/12/16 06:27:37;;;;;;;18.08;13.10;;;4.40;99.90;;;;;;5009345;28;20102;-74
2021/12/16 06:30:17;;;;;;;17.35;12.98;;;4.50;99.90;;;;;;5014338;28;20029;-73
2021/12/16 06:32:43;;;;;;;16.65;11.85;;;4.50;99.90;;;;;;5012123;28;20026;-73
2021/12/16 06:35:11;;;;;;;18.30;11.40;;;4.50;99.90;;;;;;5008749;28;20045;-73
2021/12/16 06:37:38;;;;;;;15.55;10.27;;;4.50;99.90;;;;;;5012729;28;20054;-74
2021/12/16 06:40:06;;;;;;;16.08;10.13;;;4.50;99.90;;;;;;5012189;28;20030;-73
2021/12/16 06:42:36;;;;;;;16.73;10.20;;;4.60;99.90;;;;;;5008053;28;20038;-73
2021/12/16 06:45:07;;;;;;;17.17;10.35;;;4.50;99.90;;;;;;5005212;28;20061;-73
2021/12/16 06:47:44;;;;;;;17.65;9.57;;;4.50;99.90;;;;;;5005137;28;20038;-73
2021/12/16 06:50:13;;;;;;;16.23;10.43;;;4.50;99.90;;;;;;5008529;28;20518;-74
2021/12/16 06:52:46;;;;;;;16.98;11.25;;;4.60;99.90;;;;;;5006704;28;20045;-73
2021/12/16 06:55:27;;;;;;;17.20;10.80;;;4.60;99.90;;;;;;5013148;28;20040;-73
2021/12/16 06:57:55;;;;;;;18.48;11.38;;;4.50;99.90;;;;;;5010565;28;20064;-74
2021/12/16 07:00:36;;;;;;;17.70;12.88;;;4.50;99.90;;;;;;5007441;28;20026;-73
2021/12/16 07:03:04;;;;;;;19.65;13.68;;;4.50;99.90;;;;;;5001673;28;20038;-74
2021/12/16 07:05:40;;;;;;;19.10;13.23;;;4.50;99.90;;;;;;5007484;28;20054;-73
2021/12/16 07:08:12;;;;;;;16.77;12.32;;;4.50;99.90;;;;;;5009198;28;20034;-73
2021/12/16 07:10:40;;;;;;;16.90;13.15;;;4.40;99.90;;;;;;5013352;28;20030;-74
2021/12/16 07:13:15;;;;;;;20.30;13.75;;;4.40;99.90;;;;;;5011707;28;20038;-74
2021/12/16 07:15:41;;;;;;;20.45;15.65;;;4.40;99.90;;;;;;5009312;28;20037;-73
2021/12/16 07:18:07;;;;;;;18.55;15.07;;;4.40;99.90;;;;;;5005362;28;20033;-74
2021/12/16 07:20:34;;;;;;;18.02;13.88;;;4.50;99.90;;;;;;5007763;28;20102;-73
2021/12/16 07:23:01;;;;;;;17.35;12.65;;;4.50;99.90;;;;;;5012070;28;20034;-73
2021/12/16 07:25:28;;;;;;;20.00;12.63;;;4.50;99.90;;;;;;5011125;28;20552;-73
2021/12/16 07:27:54;;;;;;;17.98;11.95;;;4.60;99.90;;;;;;5007989;28;20486;-74
2021/12/16 07:30:20;;;;;;;17.90;11.63;;;4.50;99.90;;;;;;5006814;28;20033;-73
2021/12/16 07:32:46;;;;;;;15.75;13.02;;;4.50;99.90;;;;;;5004760;28;20096;-73
2021/12/16 07:35:16;;;;;;;20.35;13.98;;;4.60;99.90;;;;;;5006915;28;20038;-74
2021/12/16 07:37:42;;;;;;;24.35;16.15;;;4.60;99.90;;;;;;5008219;28;20034;-73
2021/12/16 07:40:11;;;;;;;24.75;18.52;;;4.60;99.90;;;;;;5009919;28;20026;-73
2021/12/16 07:45:43;;;;;;;25.95;17.67;;;4.50;99.90;;;;;;4979636;28;20383;-73
2021/12/16 07:48:12;;;;;;;26.17;17.60;;;4.50;99.90;;;;;;4989116;28;20034;-74
2021/12/16 07:50:40;;;;;;;22.70;15.43;;;4.50;99.90;;;;;;4990146;28;20400;-74
2021/12/16 07:53:06;;;;;;;19.88;14.18;;;4.50;99.90;;;;;;4986806;28;20150;-73
2021/12/16 07:55:34;;;;;;;21.42;13.23;;;4.60;99.90;;;;;;4986214;28;20034;-73
2021/12/16 07:58:00;;;;;;;18.35;11.35;;;4.60;99.90;;;;;;4985487;28;20115;-70
2021/12/16 08:00:28;;;;;;;18.90;11.38;;;4.80;99.90;;;;;;4985582;28;20569;-71
2021/12/16 08:02:54;;;;;;;22.15;11.90;;;4.80;99.90;;;;;;4989688;28;20467;-71
2021/12/16 08:05:23;;;;;;;18.95;11.68;;;4.90;99.90;;;;;;4987018;28;20054;-70
2021/12/16 08:07:49;;;;;;;18.85;11.00;;;5.00;99.90;;;;;;4981408;28;20046;-71
2021/12/16 08:10:18;;;;;;;22.08;12.65;;;5.20;99.90;;;;;;4985955;28;20491;-71
2021/12/16 08:12:43;;;;;;;23.48;12.32;;;5.30;99.90;;;;;;4986038;28;20038;-71
2021/12/16 08:15:10;;;;;;;21.75;13.18;;;5.40;99.90;;;;;;4971165;28;20125;-71
2021/12/16 08:17:36;;;;;;;22.73;14.73;;;5.60;99.90;;;;;;4987257;28;20483;-71
2021/12/16 08:20:04;;;;;;;22.70;14.80;;;5.90;99.90;;;;;;4993190;28;20038;-71
2021/12/16 08:22:30;;;;;;;21.98;15.98;;;6.10;99.90;;;;;;5007339;28;20029;-71
2021/12/16 08:24:56;;;;;;;23.52;15.38;;;6.20;99.90;;;;;;5008529;28;20024;-71
2021/12/16 08:27:22;;;;;;;21.77;15.20;;;6.50;99.90;;;;;;5008712;28;20026;-71
2021/12/16 08:29:48;;;;;;;22.65;16.00;;;6.70;99.90;;;;;;5010843;28;20049;-71
2021/12/16 08:32:14;;;;;;;23.33;14.90;;;7.10;99.90;;;;;;5006523;28;20104;-72
2021/12/16 08:34:42;;;;;;;21.55;16.08;;;8.90;99.90;;;;;;5007841;28;20038;-71
2021/12/16 08:37:09;;;;;;;19.00;14.85;;;11.90;94.60;;;;;;5007402;28;20042;-72
2021/12/16 08:39:36;;;;;;;17.52;14.77;;;14.10;85.20;;;;;;5007223;28;20081;-71
2021/12/16 08:42:05;;;;;;;16.98;13.45;;;15.50;76.20;;;;;;5010331;28;20105;-72
2021/12/16 08:44:31;;;;;;;14.85;13.25;;;16.60;71.10;;;;;;5007864;28;20029;-73
2021/12/16 08:47:01;;;;;;;19.75;14.02;;;17.30;68.00;;;;;;5007588;28;20148;-71
2021/12/16 08:49:27;;;;;;;15.73;12.77;;;17.80;65.70;;;;;;5007334;28;20014;-72
2021/12/16 08:51:57;;;;;;;14.75;13.10;;;18.10;64.40;;;;;;4999668;28;20080;-71
2021/12/16 08:54:23;;;;;;;15.15;12.35;;;18.30;63.90;;;;;;5007062;28;20078;-72
2021/12/16 08:56:49;;;;;;;15.75;11.93;;;18.70;62.00;;;;;;5010675;28;20850;-71
2021/12/16 08:59:16;;;;;;;12.25;10.88;;;19.00;61.50;;;;;;5007334;28;20034;-72
2021/12/16 09:01:48;;;;;;;13.10;10.05;;;17.70;61.40;;;;;;5006780;28;20030;-72
2021/12/16 09:04:16;;;;;;;12.70;10.10;;;14.90;67.00;;;;;;5008194;28;20064;-71
2021/12/16 09:06:42;;;;;;;13.48;10.32;;;13.30;72.50;;;;;;5008520;28;20025;-72
2021/12/16 09:09:09;;;;;;;13.30;9.65;;;12.30;77.30;;;;;;5009231;28;20037;-71
2021/12/16 09:11:41;;;;;;;13.52;10.23;;;12.10;80.60;;;;;;5009906;28;20390;-71
2021/12/16 09:14:07;;;;;;;14.65;9.45;;;11.80;81.40;;;;;;5010986;28;20026;-72
2021/12/16 09:16:35;;;;;;;13.07;8.95;;;11.40;83.10;;;;;;5010865;28;20021;-72
2021/12/16 09:19:02;;;;;;;15.98;9.02;;;11.10;85.30;;;;;;5010961;28;20041;-71
2021/12/16 09:21:31;;;;;;;14.23;9.25;;;11.00;86.70;;;;;;5011350;28;20037;-71
2021/12/16 09:23:58;;;;;;;14.65;9.23;;;10.90;86.70;;;;;;5015017;28;20359;-71
2021/12/16 09:26:25;;;;;;;17.02;10.00;;;10.90;87.20;;;;;;5011163;28;20069;-72
2021/12/16 09:28:52;;;;;;;16.35;10.25;;;10.90;87.90;;;;;;5010362;28;20507;-72
2021/12/16 09:31:20;;;;;;;14.15;9.52;;;11.00;87.50;;;;;;5010800;28;20030;-71
2021/12/16 09:33:50;;;;;;;14.60;10.13;;;11.00;87.20;;;;;;5009214;28;20129;-71
2021/12/16 09:36:19;;;;;;;15.05;10.57;;;11.00;88.10;;;;;;5012445;28;20030;-71
2021/12/16 09:38:47;;;;;;;16.17;9.90;;;11.10;87.40;;;;;;5013581;28;20486;-72
2021/12/16 09:41:13;;;;;;;15.20;10.35;;;11.10;87.20;;;;;;5010276;28;20038;-71
2021/12/16 09:43:46;;;;;;;17.70;10.13;;;11.00;87.60;;;;;;5009204;28;20080;-71
2021/12/16 09:46:16;;;;;;;15.82;9.70;;;11.20;87.60;;;;;;5011680;28;20688;-72
2021/12/16 09:48:43;;;;;;;17.13;9.88;;;11.20;87.10;;;;;;5011002;28;20034;-72
2021/12/16 09:51:13;;;;;;;13.32;8.88;;;11.30;86.90;;;;;;5012965;28;20415;-71
2021/12/16 09:53:39;;;;;;;12.43;8.45;;;11.40;86.30;;;;;;5011884;28;20603;-71
2021/12/16 09:56:09;;;;;;;14.43;9.15;;;11.40;85.60;;;;;;5009988;28;20029;-72
2021/12/16 09:58:38;;;;;;;13.98;8.93;;;11.40;86.00;;;;;;5009780;28;20494;-72
2021/12/16 10:01:05;;;;;;;15.25;8.45;;;11.50;85.80;;;;;;5001791;28;20040;-72
2021/12/16 10:03:31;;;;;;;11.43;7.45;;;11.60;85.50;;;;;;5006222;28;20087;-71
2021/12/16 10:05:58;;;;;;;13.35;8.75;;;11.60;84.90;;;;;;5012880;28;20050;-72
2021/12/16 10:08:24;;;;;;;12.32;8.50;;;11.60;85.10;;;;;;5010245;28;20068;-71
2021/12/16 10:10:50;;;;;;;14.80;9.60;;;11.70;85.20;;;;;;5010601;28;20022;-72
2021/12/16 10:13:23;;;;;;;14.10;7.68;;;11.70;85.00;;;;;;5010073;28;20116;-72
2021/12/16 10:18:30;;;;;;;14.02;8.82;;;11.80;84.50;;;;;;5005913;28;20076;-72
2021/12/16 10:20:59;;;;;;;11.35;7.63;;;11.90;83.90;;;;;;5013073;28;20018;-72
2021/12/16 10:23:36;;;;;;;15.93;7.50;;;11.90;83.80;;;;;;5008460;28;20030;-71
2021/12/16 10:26:09;;;;;;;13.35;6.50;;;11.90;83.40;;;;;;5011298;28;20084;-72
2021/12/16 10:28:38;;;;;;;10.80;6.78;;;11.90;82.80;;;;;;5009921;28;20407;-71
2021/12/16 10:31:08;;;;;;;11.95;6.80;;;11.80;83.90;;;;;;5009972;28;20487;-72
2021/12/16 10:33:36;;;;;;;12.18;6.88;;;11.90;83.40;;;;;;5005131;28;20014;-72
2021/12/16 10:36:08;;;;;;;11.38;6.65;;;12.00;83.30;;;;;;5012923;28;20073;-72
2021/12/16 10:38:39;;;;;;;9.57;6.47;;;12.00;83.10;;;;;;5012082;28;20041;-72
2021/12/16 10:41:06;;;;;;;11.13;7.18;;;12.10;82.90;;;;;;5009154;28;20394;-72
2021/12/16 10:43:42;;;;;;;9.65;5.57;;;12.10;82.50;;;;;;5009158;28;20096;-72
2021/12/16 10:46:15;;;;;;;11.73;6.30;;;12.20;82.00;;;;;;5009375;28;20077;-72
2021/12/16 10:48:47;;;;;;;11.68;5.72;;;12.20;81.80;;;;;;5009234;28;20097;-72
2021/12/16 10:51:31;;;;;;;9.90;5.85;;;12.20;81.50;;;;;;5009177;28;20499;-72
2021/12/16 10:54:02;;;;;;;10.32;5.40;;;12.30;81.60;;;;;;5013331;28;20025;-72
2021/12/16 10:56:31;;;;;;;10.68;5.20;;;12.30;80.60;;;;;;5010016;28;20470;-72
2021/12/16 10:59:03;;;;;;;9.73;5.00;;;12.30;80.50;;;;;;5008732;28;20401;-72
2021/12/16 11:01:37;;;;;;;8.23;4.30;;;12.40;81.00;;;;;;5008899;28;20102;-72
2021/12/16 11:04:09;;;;;;;9.27;4.95;;;12.40;80.30;;;;;;5010419;28;20030;-72
2021/12/16 11:06:38;;;;;;;8.88;4.65;;;12.60;80.90;;;;;;5004103;28;20036;-72
2021/12/16 11:09:22;;;;;;;9.52;4.47;;;12.60;79.60;;;;;;5012529;28;20030;-72
2021/12/16 11:11:51;;;;;;;7.47;4.30;;;12.70;79.30;;;;;;5011527;28;20026;-72
2021/12/16 11:14:25;;;;;;;10.60;5.85;;;12.70;78.80;;;;;;5007025;28;20034;-72
2021/12/16 11:17:00;;;;;;;9.98;4.88;;;12.80;79.30;;;;;;5009035;28;20030;-72
2021/12/16 11:19:56;;;;;;;10.38;5.72;;;12.90;78.70;;;;;;5008268;28;20037;-72
2021/12/16 11:22:33;;;;;;;9.05;5.28;;;12.90;78.40;;;;;;5007071;28;20388;-71
2021/12/16 11:25:14;;;;;;;7.88;5.05;;;12.90;78.50;;;;;;5009128;28;20034;-72
2021/12/16 11:27:42;;;;;;;9.80;5.13;;;13.00;78.10;;;;;;5003469;28;20030;-73
2021/12/16 11:30:23;;;;;;;7.35;4.18;;;13.30;77.80;;;;;;5011448;28;20647;-72
2021/12/16 11:32:51;;;;;;;10.65;4.10;;;13.40;77.20;;;;;;5010937;28;20092;-72
2021/12/16 11:35:28;;;;;;;8.48;5.05;;;13.50;77.10;;;;;;5007966;28;20395;-70
2021/12/16 11:37:56;;;;;;;7.20;4.80;;;13.60;76.70;;;;;;5008399;28;20029;-71
2021/12/16 11:40:25;;;;;;;6.85;4.45;;;13.80;76.00;;;;;;5007941;28;20490;-71
2021/12/16 11:43:17;;;;;;;8.55;4.80;;;13.80;75.40;;;;;;5010158;28;20045;-71
2021/12/16 11:45:43;;;;;;;8.43;4.50;;;13.90;74.90;;;;;;5001131;28;20084;-71
2021/12/16 11:48:08;;;;;;;6.90;4.05;;;13.80;74.40;;;;;;5010038;28;20014;-71
2021/12/16 11:50:40;;;;;;;6.88;3.83;;;13.60;74.90;;;;;;5009044;28;20383;-71
2021/12/16 11:53:07;;;;;;;8.27;3.90;;;13.70;75.00;;;;;;5008126;28;20091;-71
2021/12/16 11:55:38;;;;;;;8.85;4.50;;;13.70;75.90;;;;;;5006497;28;20411;-71
2021/12/16 11:58:07;;;;;;;8.57;4.22;;;13.90;74.50;;;;;;5008002;28;20030;-71
2021/12/16 12:00:39;;;;;;;6.57;4.07;;;14.00;74.30;;;;;;5001627;28;20112;-71
2021/12/16 12:03:14;;;;;;;8.35;3.85;;;14.00;74.00;;;;;;5011216;28;20508;-71
2021/12/16 12:05:48;;;;;;;7.22;3.97;;;14.00;73.70;;;;;;5009028;28;20037;-71
2021/12/16 12:08:15;;;;;;;;;;;14.20;73.30;;;;;;5010657;28;20037;-71
2021/12/16 12:10:49;;;;;;;7.35;3.92;;;14.30;72.80;;;;;;5006761;28;19909;-71
2021/12/16 12:13:18;;;;;;;7.25;4.10;;;14.50;72.60;;;;;;5007803;28;20033;-70
2021/12/16 12:16:03;;;;;;;7.45;4.30;;;14.50;72.20;;;;;;5007328;28;20043;-70
2021/12/16 12:18:49;;;;;;;6.93;3.58;;;14.70;72.00;;;;;;5008081;28;20101;-71
2021/12/16 12:21:29;;;;;;;6.53;4.03;;;14.70;71.80;;;;;;5008978;28;20030;-71
2021/12/16 12:24:31;;;;;;;6.88;3.50;;;14.70;71.40;;;;;;5011381;28;20022;-71
2021/12/16 12:27:11;;;;;;;5.95;3.50;;;14.80;71.40;;;;;;4970233;28;20050;-71
2021/12/16 12:29:44;;;;;;;6.22;3.83;;;14.90;71.00;;;;;;4969350;28;20097;-71
2021/12/16 12:32:18;;;;;;;6.77;3.57;;;14.90;70.80;;;;;;4962163;28;20035;-71
2021/12/16 12:34:47;;;;;;;7.03;3.97;;;15.00;70.60;;;;;;4968419;28;20758;-71
2021/12/16 12:37:16;;;;;;;7.15;3.80;;;14.90;70.30;;;;;;4963804;28;20043;-71
2021/12/16 12:39:46;;;;;;;6.10;3.63;;;14.90;70.00;;;;;;4962267;28;20110;-71
2021/12/16 12:42:14;;;;;;;5.40;3.25;;;14.90;69.70;;;;;;4969096;28;20045;-71
2021/12/16 12:44:42;;;;;;;6.00;3.20;;;14.90;70.00;;;;;;4963263;28;20110;-71
2021/12/16 12:47:13;;;;;;;7.25;3.58;;;15.00;69.40;;;;;;4963286;28;20154;-71
2021/12/16 12:49:39;;;;;;;6.85;3.60;;;15.00;69.90;;;;;;4964557;28;20158;-71
2021/12/16 12:52:17;;;;;;;6.78;3.67;;;15.20;69.20;;;;;;4945051;28;20067;-71
2021/12/16 12:54:58;;;;;;;6.57;3.08;;;15.40;69.00;;;;;;4961671;28;20037;-71
2021/12/16 12:57:34;;;;;;;6.70;3.45;;;15.60;68.40;;;;;;4961143;28;20093;-71
2021/12/16 13:00:02;;;;;;;6.38;3.75;;;15.90;67.20;;;;;;4968917;28;20023;-71
2021/12/16 13:02:33;;;;;;;6.72;4.00;;;16.90;65.40;;;;;;4982670;28;20514;-71
2021/12/16 13:05:12;;;;;;;6.82;2.88;;;18.50;63.00;;;;;;5007009;28;20022;-71
2021/12/16 13:07:45;;;;;;;4.57;2.42;;;22.00;55.60;;;;;;5009388;28;20038;-71
2021/12/16 13:10:24;;;;;;;5.93;2.50;;;24.10;50.60;;;;;;5012101;28;20056;-71
2021/12/16 13:27:20;;;;;;;4.38;2.53;;;28.10;42.20;;;;;;4996662;28;20062;-72
2021/12/16 13:30:39;;;;;;;4.97;2.60;;;27.70;41.50;;;;;;4995200;28;20041;-73
2021/12/16 13:32:44;;;;;;;5.50;2.72;;;27.50;41.10;;;;;;4989899;28;20602;-73
2021/12/16 13:35:22;;;;;;;8.00;3.20;;;27.00;41.50;;;;;;4993844;28;20386;-73
2021/12/16 13:37:54;;;;;;;9.43;3.05;;;25.70;42.70;;;;;;4991487;28;20518;-72
2021/12/16 13:40:32;;;;;;;10.90;5.22;;;23.10;45.70;;;;;;4989287;28;20432;-72
2021/12/16 13:43:01;;;;;;;7.95;3.38;;;21.50;48.80;;;;;;4995328;28;20070;-73
2021/12/16 13:45:39;;;;;;;5.72;3.10;;;21.20;49.60;;;;;;4991996;28;20045;-72
2021/12/16 14:07:56;;;;;;;5.30;2.58;;;19.20;53.30;;;;;;5006917;28;20057;-72
2021/12/16 14:10:45;;;;;;;6.28;2.97;;;20.50;52.70;;;;;;5013722;28;20033;-73
2021/12/16 14:24:20;;;;;;;4.80;2.40;;;23.70;46.30;;;;;;5010995;28;20100;-73
2021/12/16 14:27:05;;;;;;;8.38;2.83;;;22.80;46.30;;;;;;5007431;28;20116;-73
2021/12/16 14:33:41;;;;;;;6.60;3.00;;;21.80;49.60;;;;;;5008879;28;20049;-73
2021/12/16 14:38:08;;;;;;;6.05;2.70;;;23.00;46.50;;;;;;5013452;28;20061;-72
2021/12/16 14:40:49;;;;;;;6.45;2.90;;;23.30;46.20;;;;;;5013959;28;20515;-73
2021/12/16 14:43:34;;;;;;;7.57;3.47;;;22.10;47.10;;;;;;5014808;28;20060;-72
2021/12/16 14:46:04;;;;;;;4.93;2.58;;;21.50;48.60;;;;;;5014196;28;20048;-72
2021/12/16 14:48:35;;;;;;;5.97;2.40;;;21.00;49.70;;;;;;5011729;28;20059;-72
2021/12/16 14:51:11;;;;;;;6.50;2.47;;;21.20;49.70;;;;;;5011729;28;20031;-72
2021/12/16 14:53:45;;;;;;;8.90;2.80;;;21.00;50.20;;;;;;5005806;28;20033;-72
2021/12/16 14:56:13;;;;;;;4.80;2.83;;;20.70;50.30;;;;;;5007575;28;20140;-72
2021/12/16 14:58:42;;;;;;;8.23;2.97;;;20.50;50.70;;;;;;5006714;28;20283;-72
2021/12/16 15:01:18;;;;;;;5.85;2.40;;;19.80;51.50;;;;;;5007258;28;20092;-72
2021/12/16 15:03:45;;;;;;;7.20;2.70;;;19.10;53.10;;;;;;5007492;28;20453;-72
2021/12/16 15:06:20;;;;;;;5.97;3.00;;;18.70;54.20;;;;;;5006519;28;20029;-72
2021/12/16 15:09:06;;;;;;;6.55;3.05;;;18.50;54.60;;;;;;4989477;28;20465;-72
2021/12/16 15:11:44;;;;;;;6.03;2.70;;;18.30;55.20;;;;;;5004365;28;20461;-72
2021/12/16 15:44:15;;;;;;;6.45;2.97;;;10.90;75.90;;;;;;5009734;28;20053;-71
2021/12/16 15:46:41;;;;;;;7.60;3.40;;;10.80;76.40;;;;;;5012085;28;20046;-74
2021/12/16 15:49:08;;;;;;;5.32;2.63;;;10.70;77.30;;;;;;5010629;28;20030;-74
2021/12/16 15:51:35;;;;;;;7.10;3.30;;;10.60;77.90;;;;;;5011316;28;20430;-74
2021/12/16 15:54:02;;;;;;;7.60;3.47;;;10.50;78.50;;;;;;5007276;28;20521;-74
2021/12/16 15:56:32;;;;;;;7.28;3.50;;;10.40;79.20;;;;;;5009648;28;20033;-74
2021/12/16 15:59:10;;;;;;;6.43;2.97;;;10.30;80.00;;;;;;5010539;28;20022;-74
2021/12/16 16:01:49;;;;;;;5.10;2.75;;;10.10;80.70;;;;;;5010239;28;20037;-76
2021/12/16 16:04:31;;;;;;;6.28;3.42;;;10.00;81.30;;;;;;5009545;28;20038;-74
2021/12/16 16:07:00;;;;;;;6.47;3.55;;;9.90;82.20;;;;;;5007351;28;20564;-74
2021/12/16 16:09:35;;;;;;;7.60;3.45;;;9.80;82.90;;;;;;5005912;28;20048;-74
2021/12/16 16:12:02;;;;;;;6.35;3.58;;;9.70;83.60;;;;;;5000082;28;20109;-74
2021/12/16 16:14:32;;;;;;;8.07;4.15;;;9.60;84.30;;;;;;5007238;28;20148;-74
2021/12/16 16:16:59;;;;;;;10.25;3.88;;;9.50;85.70;;;;;;5011564;28;20033;-73
2021/12/16 16:19:33;;;;;;;9.93;3.95;;;9.40;86.10;;;;;;5010708;28;20057;-73
2021/12/16 16:22:03;;;;;;;8.63;4.88;;;9.30;86.70;;;;;;5007161;28;20033;-73
2021/12/16 16:24:32;;;;;;;8.80;4.80;;;9.30;87.10;;;;;;5013954;28;20029;-73
2021/12/16 16:27:03;;;;;;;8.82;4.03;;;9.20;87.10;;;;;;5011495;28;20395;-73
2021/12/16 16:29:31;;;;;;;9.05;4.25;;;9.20;87.90;;;;;;5015160;28;20028;-74
2021/12/16 16:31:58;;;;;;;8.60;4.15;;;9.10;88.40;;;;;;5015145;28;20026;-73
2021/12/16 16:34:28;;;;;;;10.40;4.00;;;9.00;88.90;;;;;;5015121;28;20026;-74
2021/12/16 16:37:07;;;;;;;6.90;4.28;;;9.00;89.30;;;;;;5014727;28;21355;-74
2021/12/16 16:39:36;;;;;;;10.30;4.13;;;9.00;89.70;;;;;;5011433;28;20040;-73
2021/12/16 16:42:12;;;;;;;9.68;4.50;;;8.90;90.00;;;;;;5012226;28;20084;-74
2021/12/16 16:44:39;;;;;;;9.80;4.90;;;8.90;90.20;;;;;;5012484;28;20034;-73
2021/12/16 16:47:14;;;;;;;17.80;10.15;;;8.80;90.50;;;;;;5014512;28;20046;-73
2021/12/16 16:49:47;;;;;;;21.25;12.52;;;8.70;90.80;;;;;;5009894;28;20025;-73